To NAV CANADA Home Page Login to a new session Search on AWWS site Feedback and Comments Disclaimer Vers la page française équivalente Tips FAQ What's new on the site To the Forecasts and Observations / NOTAM section To "File a Flight Plan" website Publications and other links Update of the User's profile FIC Telephone Numbers My Weather Data Folder Route Weather Data Regional Weather Data Local Weather Data To the Forecasts and Observations / NOTAM section
Request Generated 07/08/2015 at 04:35:53 UTC . Weather information available at that time is displayed.

METAR/TAF

DAWSON CITY/YT    

LWIS CYDA 080400Z AUTO 23009KT 19/15 A2973=
METAR CYDA 080300Z 21006KT 20SM VCSH FEW055CB SCT060 BKN120 BKN220
19/14 A2974 RMK CB1SC3AC2CI1 CLIMAT 23.2/13.1/1.8 MM LAST STFD
OBS/NEXT 081300 UTC SLP079 DENSITY ALT 2100FT=
SPECI CYDA 080224Z 25004KT 20SM VCSH BKN055CB BKN060 OVC120 17/15
A2976 RMK CB5SC2AC1 SLP084 DENSITY ALT 1800FT=
METAR CYDA 080200Z 24007KT 230V330 15SM SHRA BKN055CB OVC060 17/14
A2977 RMK CB6SC2 VIS W 5 SLP089 DENSITY ALT 1900FT=

*** REMARK        : Forecast period has ended; this was the last TAF issued
*** REMARQUE : La période de prévision est échue; ceci était le dernier TAF qui a été émis
TAF CYDA 072343Z 0800/0803 VRB03KT P6SM BKN060 OVC120 TEMPO 0800/0803
P6SM -SHRA OVC060
BECMG 0801/0803 24008KT
RMK NXT FCST WILL BE ISSUED AT 081445Z=
Your time UTC time
Weather data provided by Environment Canada and NAV CANADA